sensor_id;sensor_type;location;lat;lon;timestamp;P1;durP1;ratioP1;P2;durP2;ratioP2
47481;SDS011;33219;47.410;9.730;2023-05-15T00:00:35;7.37;;;4.87;;
47481;SDS011;33219;47.410;9.730;2023-05-15T00:03:04;7.00;;;5.10;;
47481;SDS011;33219;47.410;9.730;2023-05-15T00:05:32;7.75;;;4.80;;
47481;SDS011;33219;47.410;9.730;2023-05-15T00:07:59;6.25;;;4.05;;
47481;SDS011;33219;47.410;9.730;2023-05-15T00:10:27;5.78;;;3.50;;
47481;SDS011;33219;47.410;9.730;2023-05-15T00:12:54;4.37;;;3.35;;
47481;SDS011;33219;47.410;9.730;2023-05-15T00:15:22;8.15;;;3.98;;
47481;SDS011;33219;47.410;9.730;2023-05-15T00:17:49;6.40;;;3.77;;
47481;SDS011;33219;47.410;9.730;2023-05-15T00:20:17;4.37;;;3.27;;
47481;SDS011;33219;47.410;9.730;2023-05-15T00:22:44;5.42;;;3.50;;
47481;SDS011;33219;47.410;9.730;2023-05-15T00:25:12;4.58;;;3.10;;
47481;SDS011;33219;47.410;9.730;2023-05-15T00:27:40;5.10;;;3.58;;
47481;SDS011;33219;47.410;9.730;2023-05-15T00:30:07;5.45;;;3.58;;
47481;SDS011;33219;47.410;9.730;2023-05-15T00:32:35;5.55;;;3.77;;
47481;SDS011;33219;47.410;9.730;2023-05-15T00:35:03;5.90;;;4.17;;
47481;SDS011;33219;47.410;9.730;2023-05-15T00:37:31;6.55;;;4.58;;
47481;SDS011;33219;47.410;9.730;2023-05-15T00:39:58;6.28;;;4.50;;
47481;SDS011;33219;47.410;9.730;2023-05-15T00:42:26;7.08;;;4.58;;
47481;SDS011;33219;47.410;9.730;2023-05-15T00:44:54;7.67;;;5.00;;
47481;SDS011;33219;47.410;9.730;2023-05-15T00:47:23;7.03;;;4.90;;
47481;SDS011;33219;47.410;9.730;2023-05-15T00:49:53;8.18;;;5.45;;
47481;SDS011;33219;47.410;9.730;2023-05-15T00:52:22;6.42;;;3.98;;
47481;SDS011;33219;47.410;9.730;2023-05-15T00:54:50;6.08;;;3.22;;
47481;SDS011;33219;47.410;9.730;2023-05-15T00:57:18;4.22;;;3.22;;
47481;SDS011;33219;47.410;9.730;2023-05-15T00:59:48;4.33;;;3.17;;
47481;SDS011;33219;47.410;9.730;2023-05-15T01:02:18;4.70;;;2.75;;
47481;SDS011;33219;47.410;9.730;2023-05-15T01:04:46;4.37;;;2.90;;
47481;SDS011;33219;47.410;9.730;2023-05-15T01:07:14;4.50;;;2.95;;
47481;SDS011;33219;47.410;9.730;2023-05-15T01:09:41;4.20;;;2.60;;
47481;SDS011;33219;47.410;9.730;2023-05-15T01:12:09;3.60;;;2.42;;
47481;SDS011;33219;47.410;9.730;2023-05-15T01:14:39;3.47;;;2.20;;
47481;SDS011;33219;47.410;9.730;2023-05-15T01:17:06;3.45;;;2.27;;
47481;SDS011;33219;47.410;9.730;2023-05-15T01:19:34;4.40;;;2.70;;
47481;SDS011;33219;47.410;9.730;2023-05-15T01:22:08;4.17;;;2.70;;
47481;SDS011;33219;47.410;9.730;2023-05-15T01:24:41;3.92;;;2.60;;
47481;SDS011;33219;47.410;9.730;2023-05-15T01:27:17;5.62;;;3.22;;
47481;SDS011;33219;47.410;9.730;2023-05-15T01:32:37;5.53;;;3.15;;
47481;SDS011;33219;47.410;9.730;2023-05-15T01:37:39;4.33;;;3.42;;
47481;SDS011;33219;47.410;9.730;2023-05-15T01:40:07;4.65;;;3.42;;
47481;SDS011;33219;47.410;9.730;2023-05-15T01:42:39;5.95;;;3.92;;
47481;SDS011;33219;47.410;9.730;2023-05-15T01:45:09;5.90;;;4.58;;
47481;SDS011;33219;47.410;9.730;2023-05-15T01:47:43;6.00;;;4.58;;
47481;SDS011;33219;47.410;9.730;2023-05-15T01:50:10;6.80;;;5.00;;
47481;SDS011;33219;47.410;9.730;2023-05-15T01:52:45;8.40;;;5.40;;
47481;SDS011;33219;47.410;9.730;2023-05-15T01:55:10;8.98;;;6.10;;
47481;SDS011;33219;47.410;9.730;2023-05-15T01:57:41;10.10;;;6.15;;
47481;SDS011;33219;47.410;9.730;2023-05-15T02:00:09;8.98;;;5.87;;
47481;SDS011;33219;47.410;9.730;2023-05-15T02:02:38;7.75;;;5.40;;
47481;SDS011;33219;47.410;9.730;2023-05-15T02:05:07;8.18;;;5.30;;
47481;SDS011;33219;47.410;9.730;2023-05-15T02:07:35;7.67;;;5.22;;
47481;SDS011;33219;47.410;9.730;2023-05-15T02:10:04;7.25;;;4.95;;
47481;SDS011;33219;47.410;9.730;2023-05-15T02:12:32;6.75;;;5.03;;
47481;SDS011;33219;47.410;9.730;2023-05-15T02:15:01;6.58;;;4.87;;
47481;SDS011;33219;47.410;9.730;2023-05-15T02:17:29;7.15;;;5.40;;
47481;SDS011;33219;47.410;9.730;2023-05-15T02:19:57;8.70;;;5.50;;
47481;SDS011;33219;47.410;9.730;2023-05-15T02:22:24;7.60;;;5.53;;
47481;SDS011;33219;47.410;9.730;2023-05-15T02:24:52;8.03;;;5.78;;
47481;SDS011;33219;47.410;9.730;2023-05-15T02:27:21;8.58;;;5.92;;
47481;SDS011;33219;47.410;9.730;2023-05-15T02:32:37;8.98;;;6.33;;
47481;SDS011;33219;47.410;9.730;2023-05-15T02:35:30;8.85;;;5.78;;
47481;SDS011;33219;47.410;9.730;2023-05-15T02:38:06;8.35;;;5.58;;
47481;SDS011;33219;47.410;9.730;2023-05-15T02:40:35;9.63;;;5.55;;
47481;SDS011;33219;47.410;9.730;2023-05-15T02:43:03;7.47;;;5.47;;
47481;SDS011;33219;47.410;9.730;2023-05-15T02:45:31;8.98;;;5.97;;
47481;SDS011;33219;47.410;9.730;2023-05-15T02:48:01;8.48;;;5.30;;
47481;SDS011;33219;47.410;9.730;2023-05-15T02:50:30;7.83;;;4.50;;
47481;SDS011;33219;47.410;9.730;2023-05-15T02:53:06;7.42;;;4.47;;
47481;SDS011;33219;47.410;9.730;2023-05-15T02:55:32;6.58;;;4.12;;
47481;SDS011;33219;47.410;9.730;2023-05-15T02:58:00;6.35;;;4.15;;
47481;SDS011;33219;47.410;9.730;2023-05-15T03:00:29;7.08;;;3.83;;
47481;SDS011;33219;47.410;9.730;2023-05-15T03:02:57;5.97;;;4.25;;
47481;SDS011;33219;47.410;9.730;2023-05-15T03:05:24;6.08;;;4.28;;
47481;SDS011;33219;47.410;9.730;2023-05-15T03:07:52;6.10;;;4.22;;
47481;SDS011;33219;47.410;9.730;2023-05-15T03:10:19;6.03;;;4.15;;
47481;SDS011;33219;47.410;9.730;2023-05-15T03:12:48;7.10;;;4.05;;
47481;SDS011;33219;47.410;9.730;2023-05-15T03:15:16;7.25;;;3.87;;
47481;SDS011;33219;47.410;9.730;2023-05-15T03:17:45;7.42;;;4.33;;
47481;SDS011;33219;47.410;9.730;2023-05-15T03:20:12;5.33;;;3.70;;
47481;SDS011;33219;47.410;9.730;2023-05-15T03:22:40;6.67;;;4.05;;
47481;SDS011;33219;47.410;9.730;2023-05-15T03:25:11;5.90;;;4.42;;
47481;SDS011;33219;47.410;9.730;2023-05-15T03:27:38;6.50;;;3.80;;
47481;SDS011;33219;47.410;9.730;2023-05-15T03:30:06;5.83;;;3.80;;
47481;SDS011;33219;47.410;9.730;2023-05-15T03:32:34;7.60;;;4.25;;
47481;SDS011;33219;47.410;9.730;2023-05-15T03:35:01;5.35;;;3.67;;
47481;SDS011;33219;47.410;9.730;2023-05-15T03:37:29;4.62;;;3.27;;
47481;SDS011;33219;47.410;9.730;2023-05-15T03:39:58;5.17;;;3.45;;
47481;SDS011;33219;47.410;9.730;2023-05-15T03:42:25;6.67;;;3.83;;
47481;SDS011;33219;47.410;9.730;2023-05-15T03:44:54;4.80;;;3.55;;
47481;SDS011;33219;47.410;9.730;2023-05-15T03:47:21;5.03;;;3.50;;
47481;SDS011;33219;47.410;9.730;2023-05-15T03:49:49;5.87;;;3.58;;
47481;SDS011;33219;47.410;9.730;2023-05-15T03:52:16;6.40;;;3.80;;
47481;SDS011;33219;47.410;9.730;2023-05-15T03:54:44;5.45;;;4.00;;
47481;SDS011;33219;47.410;9.730;2023-05-15T03:57:12;4.90;;;3.10;;
47481;SDS011;33219;47.410;9.730;2023-05-15T03:59:39;4.78;;;3.40;;
47481;SDS011;33219;47.410;9.730;2023-05-15T04:02:07;5.50;;;3.35;;
47481;SDS011;33219;47.410;9.730;2023-05-15T04:04:34;4.87;;;3.55;;
47481;SDS011;33219;47.410;9.730;2023-05-15T04:07:03;4.80;;;3.22;;
47481;SDS011;33219;47.410;9.730;2023-05-15T04:09:32;6.75;;;3.20;;
47481;SDS011;33219;47.410;9.730;2023-05-15T04:11:59;5.40;;;3.17;;
47481;SDS011;33219;47.410;9.730;2023-05-15T04:14:27;7.08;;;3.95;;
47481;SDS011;33219;47.410;9.730;2023-05-15T04:16:54;5.62;;;3.58;;
47481;SDS011;33219;47.410;9.730;2023-05-15T04:19:22;6.33;;;3.62;;
47481;SDS011;33219;47.410;9.730;2023-05-15T04:21:49;5.22;;;3.20;;
47481;SDS011;33219;47.410;9.730;2023-05-15T04:24:17;5.12;;;3.42;;
47481;SDS011;33219;47.410;9.730;2023-05-15T04:26:44;6.28;;;3.42;;
47481;SDS011;33219;47.410;9.730;2023-05-15T04:29:12;6.10;;;3.40;;
47481;SDS011;33219;47.410;9.730;2023-05-15T04:31:39;4.72;;;3.15;;
47481;SDS011;33219;47.410;9.730;2023-05-15T04:34:07;6.70;;;3.10;;
47481;SDS011;33219;47.410;9.730;2023-05-15T04:36:35;4.55;;;2.80;;
47481;SDS011;33219;47.410;9.730;2023-05-15T04:39:02;4.15;;;2.80;;
47481;SDS011;33219;47.410;9.730;2023-05-15T04:41:31;5.28;;;3.00;;
47481;SDS011;33219;47.410;9.730;2023-05-15T04:43:59;5.55;;;3.02;;
47481;SDS011;33219;47.410;9.730;2023-05-15T04:46:26;3.92;;;3.12;;
47481;SDS011;33219;47.410;9.730;2023-05-15T04:48:54;3.77;;;2.70;;
47481;SDS011;33219;47.410;9.730;2023-05-15T04:51:22;4.83;;;2.90;;
47481;SDS011;33219;47.410;9.730;2023-05-15T04:53:49;6.83;;;4.25;;
47481;SDS011;33219;47.410;9.730;2023-05-15T04:56:17;7.12;;;5.60;;
47481;SDS011;33219;47.410;9.730;2023-05-15T04:58:46;5.75;;;4.37;;
47481;SDS011;33219;47.410;9.730;2023-05-15T05:01:13;6.30;;;4.50;;
47481;SDS011;33219;47.410;9.730;2023-05-15T05:03:41;6.35;;;4.05;;
47481;SDS011;33219;47.410;9.730;2023-05-15T05:06:08;5.65;;;4.10;;
47481;SDS011;33219;47.410;9.730;2023-05-15T05:08:36;5.12;;;3.55;;
47481;SDS011;33219;47.410;9.730;2023-05-15T05:11:03;4.55;;;2.92;;
47481;SDS011;33219;47.410;9.730;2023-05-15T05:13:31;4.17;;;2.92;;
47481;SDS011;33219;47.410;9.730;2023-05-15T05:15:58;3.87;;;2.70;;
47481;SDS011;33219;47.410;9.730;2023-05-15T05:18:30;4.35;;;2.40;;
47481;SDS011;33219;47.410;9.730;2023-05-15T05:20:59;4.58;;;2.65;;
47481;SDS011;33219;47.410;9.730;2023-05-15T05:23:26;3.30;;;2.15;;
47481;SDS011;33219;47.410;9.730;2023-05-15T05:25:54;4.80;;;2.62;;
47481;SDS011;33219;47.410;9.730;2023-05-15T05:28:32;5.85;;;3.00;;
47481;SDS011;33219;47.410;9.730;2023-05-15T05:30:55;4.00;;;2.90;;
47481;SDS011;33219;47.410;9.730;2023-05-15T05:33:23;4.85;;;2.60;;
47481;SDS011;33219;47.410;9.730;2023-05-15T05:35:52;3.83;;;2.65;;
47481;SDS011;33219;47.410;9.730;2023-05-15T05:38:32;4.22;;;2.65;;
47481;SDS011;33219;47.410;9.730;2023-05-15T05:41:10;4.45;;;2.65;;
47481;SDS011;33219;47.410;9.730;2023-05-15T05:55:54;4.45;;;3.05;;
47481;SDS011;33219;47.410;9.730;2023-05-15T06:01:41;3.52;;;2.55;;
47481;SDS011;33219;47.410;9.730;2023-05-15T06:07:20;4.37;;;2.55;;
47481;SDS011;33219;47.410;9.730;2023-05-15T06:12:45;3.58;;;2.70;;
47481;SDS011;33219;47.410;9.730;2023-05-15T06:15:26;3.95;;;2.85;;
47481;SDS011;33219;47.410;9.730;2023-05-15T06:18:07;4.85;;;2.90;;
47481;SDS011;33219;47.410;9.730;2023-05-15T06:20:46;5.20;;;3.17;;
47481;SDS011;33219;47.410;9.730;2023-05-15T06:23:15;4.08;;;2.98;;
47481;SDS011;33219;47.410;9.730;2023-05-15T06:25:49;4.20;;;2.92;;
47481;SDS011;33219;47.410;9.730;2023-05-15T06:28:23;8.83;;;3.42;;
47481;SDS011;33219;47.410;9.730;2023-05-15T06:31:03;6.22;;;3.17;;
47481;SDS011;33219;47.410;9.730;2023-05-15T06:33:42;7.30;;;3.62;;
47481;SDS011;33219;47.410;9.730;2023-05-15T06:36:42;7.80;;;3.40;;
47481;SDS011;33219;47.410;9.730;2023-05-15T06:39:30;8.00;;;4.97;;
47481;SDS011;33219;47.410;9.730;2023-05-15T06:42:15;7.65;;;4.37;;
47481;SDS011;33219;47.410;9.730;2023-05-15T06:45:18;5.78;;;4.42;;
47481;SDS011;33219;47.410;9.730;2023-05-15T06:48:02;6.47;;;3.60;;
47481;SDS011;33219;47.410;9.730;2023-05-15T06:50:49;5.33;;;3.55;;
47481;SDS011;33219;47.410;9.730;2023-05-15T06:53:51;6.08;;;3.40;;
47481;SDS011;33219;47.410;9.730;2023-05-15T07:00:18;5.10;;;3.00;;
47481;SDS011;33219;47.410;9.730;2023-05-15T07:08:55;3.80;;;2.80;;
47481;SDS011;33219;47.410;9.730;2023-05-15T07:12:48;5.62;;;2.70;;
47481;SDS011;33219;47.410;9.730;2023-05-15T07:15:28;4.10;;;2.70;;
47481;SDS011;33219;47.410;9.730;2023-05-15T07:36:55;3.52;;;2.58;;
47481;SDS011;33219;47.410;9.730;2023-05-15T07:46:07;3.65;;;2.65;;
47481;SDS011;33219;47.410;9.730;2023-05-15T07:49:01;5.12;;;2.87;;
47481;SDS011;33219;47.410;9.730;2023-05-15T07:51:58;4.00;;;2.85;;
47481;SDS011;33219;47.410;9.730;2023-05-15T08:01:12;3.52;;;2.95;;
47481;SDS011;33219;47.410;9.730;2023-05-15T08:04:10;6.58;;;3.30;;
47481;SDS011;33219;47.410;9.730;2023-05-15T08:07:04;4.45;;;2.67;;
47481;SDS011;33219;47.410;9.730;2023-05-15T08:09:55;4.03;;;2.83;;
47481;SDS011;33219;47.410;9.730;2023-05-15T08:12:45;3.98;;;2.42;;
47481;SDS011;33219;47.410;9.730;2023-05-15T08:15:36;3.52;;;2.70;;
47481;SDS011;33219;47.410;9.730;2023-05-15T08:18:20;3.37;;;2.60;;
47481;SDS011;33219;47.410;9.730;2023-05-15T08:23:58;3.35;;;2.65;;
47481;SDS011;33219;47.410;9.730;2023-05-15T08:53:50;5.22;;;3.27;;
47481;SDS011;33219;47.410;9.730;2023-05-15T08:56:35;3.60;;;2.37;;
47481;SDS011;33219;47.410;9.730;2023-05-15T08:59:30;4.42;;;2.77;;
47481;SDS011;33219;47.410;9.730;2023-05-15T09:02:26;3.35;;;2.58;;
47481;SDS011;33219;47.410;9.730;2023-05-15T09:11:25;3.45;;;2.25;;
47481;SDS011;33219;47.410;9.730;2023-05-15T09:14:01;3.85;;;2.80;;
47481;SDS011;33219;47.410;9.730;2023-05-15T09:16:35;3.75;;;2.55;;
47481;SDS011;33219;47.410;9.730;2023-05-15T09:19:10;5.20;;;3.00;;
47481;SDS011;33219;47.410;9.730;2023-05-15T09:24:18;4.83;;;3.52;;
47481;SDS011;33219;47.410;9.730;2023-05-15T09:27:03;5.17;;;3.85;;
47481;SDS011;33219;47.410;9.730;2023-05-15T09:29:50;5.70;;;3.70;;
47481;SDS011;33219;47.410;9.730;2023-05-15T09:32:49;5.25;;;3.77;;
47481;SDS011;33219;47.410;9.730;2023-05-15T09:35:34;5.42;;;3.47;;
47481;SDS011;33219;47.410;9.730;2023-05-15T09:44:27;3.40;;;2.80;;
47481;SDS011;33219;47.410;9.730;2023-05-15T09:47:09;5.92;;;2.95;;
47481;SDS011;33219;47.410;9.730;2023-05-15T09:49:50;5.97;;;2.80;;
47481;SDS011;33219;47.410;9.730;2023-05-15T09:52:33;4.70;;;3.17;;
47481;SDS011;33219;47.410;9.730;2023-05-15T09:55:18;4.95;;;3.50;;
47481;SDS011;33219;47.410;9.730;2023-05-15T10:00:53;3.87;;;3.20;;
47481;SDS011;33219;47.410;9.730;2023-05-15T10:03:40;5.55;;;2.60;;
47481;SDS011;33219;47.410;9.730;2023-05-15T10:06:24;3.42;;;2.40;;
47481;SDS011;33219;47.410;9.730;2023-05-15T10:09:02;3.22;;;2.50;;
47481;SDS011;33219;47.410;9.730;2023-05-15T10:11:42;3.47;;;2.00;;
47481;SDS011;33219;47.410;9.730;2023-05-15T10:14:23;3.30;;;2.40;;
47481;SDS011;33219;47.410;9.730;2023-05-15T10:37:06;2.55;;;1.75;;
47481;SDS011;33219;47.410;9.730;2023-05-15T10:39:40;2.25;;;1.50;;
47481;SDS011;33219;47.410;9.730;2023-05-15T10:42:17;2.22;;;1.55;;
47481;SDS011;33219;47.410;9.730;2023-05-15T10:44:56;2.50;;;1.52;;
47481;SDS011;33219;47.410;9.730;2023-05-15T10:47:35;1.42;;;1.30;;
47481;SDS011;33219;47.410;9.730;2023-05-15T10:50:14;2.35;;;1.50;;
47481;SDS011;33219;47.410;9.730;2023-05-15T10:52:47;1.80;;;1.40;;
47481;SDS011;33219;47.410;9.730;2023-05-15T10:55:38;1.87;;;1.55;;
47481;SDS011;33219;47.410;9.730;2023-05-15T10:58:17;2.45;;;1.70;;
47481;SDS011;33219;47.410;9.730;2023-05-15T11:06:32;1.98;;;1.40;;
47481;SDS011;33219;47.410;9.730;2023-05-15T11:18:07;2.67;;;1.60;;
47481;SDS011;33219;47.410;9.730;2023-05-15T11:24:02;4.25;;;2.00;;
47481;SDS011;33219;47.410;9.730;2023-05-15T11:39:32;3.70;;;2.00;;
47481;SDS011;33219;47.410;9.730;2023-05-15T11:47:45;2.70;;;2.00;;
47481;SDS011;33219;47.410;9.730;2023-05-15T11:59:01;2.60;;;1.77;;
47481;SDS011;33219;47.410;9.730;2023-05-15T12:10:32;3.10;;;2.20;;
47481;SDS011;33219;47.410;9.730;2023-05-15T12:16:40;4.05;;;2.33;;
47481;SDS011;33219;47.410;9.730;2023-05-15T12:19:26;3.77;;;2.15;;
47481;SDS011;33219;47.410;9.730;2023-05-15T12:25:43;3.08;;;2.22;;
47481;SDS011;33219;47.410;9.730;2023-05-15T12:31:09;3.65;;;2.35;;
47481;SDS011;33219;47.410;9.730;2023-05-15T12:33:55;2.33;;;1.98;;
47481;SDS011;33219;47.410;9.730;2023-05-15T12:36:30;2.40;;;1.90;;
47481;SDS011;33219;47.410;9.730;2023-05-15T12:39:11;2.67;;;2.05;;
47481;SDS011;33219;47.410;9.730;2023-05-15T12:41:55;3.75;;;2.10;;
47481;SDS011;33219;47.410;9.730;2023-05-15T12:44:32;2.58;;;1.90;;
47481;SDS011;33219;47.410;9.730;2023-05-15T12:52:49;4.47;;;2.08;;
47481;SDS011;33219;47.410;9.730;2023-05-15T12:55:36;2.35;;;1.70;;
47481;SDS011;33219;47.410;9.730;2023-05-15T12:58:27;2.40;;;1.60;;
47481;SDS011;33219;47.410;9.730;2023-05-15T13:01:02;2.05;;;1.50;;
47481;SDS011;33219;47.410;9.730;2023-05-15T13:06:59;2.45;;;1.80;;
47481;SDS011;33219;47.410;9.730;2023-05-15T13:09:42;2.67;;;1.92;;
47481;SDS011;33219;47.410;9.730;2023-05-15T13:21:30;2.98;;;2.00;;
47481;SDS011;33219;47.410;9.730;2023-05-15T13:24:08;2.65;;;1.85;;
47481;SDS011;33219;47.410;9.730;2023-05-15T13:26:46;4.05;;;2.00;;
47481;SDS011;33219;47.410;9.730;2023-05-15T13:29:19;4.12;;;2.02;;
47481;SDS011;33219;47.410;9.730;2023-05-15T13:32:01;3.60;;;2.25;;
47481;SDS011;33219;47.410;9.730;2023-05-15T13:34:32;3.20;;;2.30;;
47481;SDS011;33219;47.410;9.730;2023-05-15T13:37:04;4.15;;;2.10;;
47481;SDS011;33219;47.410;9.730;2023-05-15T13:39:35;2.80;;;2.12;;
47481;SDS011;33219;47.410;9.730;2023-05-15T13:42:08;4.22;;;2.35;;
47481;SDS011;33219;47.410;9.730;2023-05-15T13:44:40;2.50;;;1.95;;
47481;SDS011;33219;47.410;9.730;2023-05-15T13:49:49;2.67;;;1.90;;
47481;SDS011;33219;47.410;9.730;2023-05-15T13:52:23;2.95;;;2.00;;
47481;SDS011;33219;47.410;9.730;2023-05-15T13:54:53;3.17;;;2.10;;
47481;SDS011;33219;47.410;9.730;2023-05-15T13:57:24;2.50;;;1.95;;
47481;SDS011;33219;47.410;9.730;2023-05-15T13:59:53;3.33;;;1.87;;
47481;SDS011;33219;47.410;9.730;2023-05-15T14:02:34;2.60;;;2.00;;
47481;SDS011;33219;47.410;9.730;2023-05-15T14:04:58;2.50;;;1.65;;
47481;SDS011;33219;47.410;9.730;2023-05-15T14:07:28;3.02;;;2.00;;
47481;SDS011;33219;47.410;9.730;2023-05-15T14:10:04;2.62;;;1.87;;
47481;SDS011;33219;47.410;9.730;2023-05-15T14:12:46;2.90;;;1.90;;
47481;SDS011;33219;47.410;9.730;2023-05-15T14:15:13;2.67;;;2.02;;
47481;SDS011;33219;47.410;9.730;2023-05-15T14:17:41;2.42;;;1.95;;
47481;SDS011;33219;47.410;9.730;2023-05-15T14:20:09;2.40;;;1.70;;
47481;SDS011;33219;47.410;9.730;2023-05-15T14:22:37;3.20;;;1.87;;
47481;SDS011;33219;47.410;9.730;2023-05-15T14:25:06;2.80;;;1.95;;
47481;SDS011;33219;47.410;9.730;2023-05-15T14:27:35;3.27;;;2.08;;
47481;SDS011;33219;47.410;9.730;2023-05-15T14:30:03;1.90;;;1.70;;
47481;SDS011;33219;47.410;9.730;2023-05-15T14:32:32;3.20;;;2.08;;
47481;SDS011;33219;47.410;9.730;2023-05-15T14:34:59;2.52;;;1.90;;
47481;SDS011;33219;47.410;9.730;2023-05-15T14:37:29;2.92;;;2.00;;
47481;SDS011;33219;47.410;9.730;2023-05-15T14:40:00;3.55;;;2.30;;
47481;SDS011;33219;47.410;9.730;2023-05-15T14:42:29;2.98;;;2.35;;
47481;SDS011;33219;47.410;9.730;2023-05-15T14:44:58;3.98;;;2.30;;
47481;SDS011;33219;47.410;9.730;2023-05-15T14:47:26;2.75;;;2.12;;
47481;SDS011;33219;47.410;9.730;2023-05-15T14:49:54;2.72;;;2.20;;
47481;SDS011;33219;47.410;9.730;2023-05-15T14:52:22;3.37;;;2.17;;
47481;SDS011;33219;47.410;9.730;2023-05-15T14:54:49;3.80;;;2.17;;
47481;SDS011;33219;47.410;9.730;2023-05-15T14:57:17;2.27;;;1.77;;
47481;SDS011;33219;47.410;9.730;2023-05-15T14:59:45;2.90;;;2.20;;
47481;SDS011;33219;47.410;9.730;2023-05-15T15:02:13;2.92;;;2.30;;
47481;SDS011;33219;47.410;9.730;2023-05-15T15:04:41;2.52;;;1.90;;
47481;SDS011;33219;47.410;9.730;2023-05-15T15:07:11;2.45;;;1.92;;
47481;SDS011;33219;47.410;9.730;2023-05-15T15:09:39;3.98;;;2.00;;
47481;SDS011;33219;47.410;9.730;2023-05-15T15:12:06;2.70;;;2.10;;
47481;SDS011;33219;47.410;9.730;2023-05-15T15:14:34;2.62;;;2.00;;
47481;SDS011;33219;47.410;9.730;2023-05-15T15:17:02;2.92;;;2.30;;
47481;SDS011;33219;47.410;9.730;2023-05-15T15:19:29;2.72;;;2.20;;
47481;SDS011;33219;47.410;9.730;2023-05-15T15:21:57;3.12;;;2.00;;
47481;SDS011;33219;47.410;9.730;2023-05-15T15:24:24;2.27;;;2.08;;
47481;SDS011;33219;47.410;9.730;2023-05-15T15:26:53;3.52;;;2.42;;
47481;SDS011;33219;47.410;9.730;2023-05-15T15:29:20;3.20;;;2.58;;
47481;SDS011;33219;47.410;9.730;2023-05-15T15:31:48;2.90;;;2.33;;
47481;SDS011;33219;47.410;9.730;2023-05-15T15:34:15;3.77;;;2.50;;
47481;SDS011;33219;47.410;9.730;2023-05-15T15:36:43;2.90;;;2.42;;
47481;SDS011;33219;47.410;9.730;2023-05-15T15:39:10;3.02;;;2.60;;
47481;SDS011;33219;47.410;9.730;2023-05-15T15:41:38;4.05;;;2.40;;
47481;SDS011;33219;47.410;9.730;2023-05-15T15:44:05;3.95;;;2.30;;
47481;SDS011;33219;47.410;9.730;2023-05-15T15:46:33;4.42;;;2.20;;
47481;SDS011;33219;47.410;9.730;2023-05-15T15:49:01;3.92;;;1.98;;
47481;SDS011;33219;47.410;9.730;2023-05-15T15:51:28;3.67;;;2.17;;
47481;SDS011;33219;47.410;9.730;2023-05-15T15:53:56;3.85;;;2.00;;
47481;SDS011;33219;47.410;9.730;2023-05-15T15:56:23;6.12;;;2.00;;
47481;SDS011;33219;47.410;9.730;2023-05-15T15:58:51;4.28;;;2.33;;
47481;SDS011;33219;47.410;9.730;2023-05-15T16:01:18;3.58;;;2.35;;
47481;SDS011;33219;47.410;9.730;2023-05-15T16:03:46;2.25;;;1.95;;
47481;SDS011;33219;47.410;9.730;2023-05-15T16:06:14;2.72;;;2.15;;
47481;SDS011;33219;47.410;9.730;2023-05-15T16:08:42;2.87;;;2.20;;
47481;SDS011;33219;47.410;9.730;2023-05-15T16:11:09;3.00;;;1.95;;
47481;SDS011;33219;47.410;9.730;2023-05-15T16:13:37;2.27;;;1.90;;
47481;SDS011;33219;47.410;9.730;2023-05-15T16:16:04;2.83;;;2.12;;
47481;SDS011;33219;47.410;9.730;2023-05-15T16:18:32;2.27;;;1.98;;
47481;SDS011;33219;47.410;9.730;2023-05-15T16:21:00;2.83;;;2.12;;
47481;SDS011;33219;47.410;9.730;2023-05-15T16:23:31;2.87;;;1.98;;
47481;SDS011;33219;47.410;9.730;2023-05-15T16:26:01;3.17;;;2.30;;
47481;SDS011;33219;47.410;9.730;2023-05-15T16:28:30;2.62;;;2.10;;
47481;SDS011;33219;47.410;9.730;2023-05-15T16:30:58;3.75;;;2.30;;
47481;SDS011;33219;47.410;9.730;2023-05-15T16:33:28;3.62;;;2.35;;
47481;SDS011;33219;47.410;9.730;2023-05-15T16:35:57;4.83;;;2.25;;
47481;SDS011;33219;47.410;9.730;2023-05-15T16:38:24;4.58;;;2.40;;
47481;SDS011;33219;47.410;9.730;2023-05-15T16:40:52;4.65;;;2.50;;
47481;SDS011;33219;47.410;9.730;2023-05-15T16:43:19;3.17;;;2.40;;
47481;SDS011;33219;47.410;9.730;2023-05-15T16:45:47;3.20;;;2.52;;
47481;SDS011;33219;47.410;9.730;2023-05-15T16:48:14;4.55;;;2.98;;
47481;SDS011;33219;47.410;9.730;2023-05-15T16:50:42;3.65;;;2.45;;
47481;SDS011;33219;47.410;9.730;2023-05-15T16:53:10;3.47;;;2.52;;
47481;SDS011;33219;47.410;9.730;2023-05-15T16:55:39;3.70;;;2.62;;
47481;SDS011;33219;47.410;9.730;2023-05-15T16:58:06;3.37;;;2.62;;
47481;SDS011;33219;47.410;9.730;2023-05-15T17:00:34;3.05;;;2.35;;
47481;SDS011;33219;47.410;9.730;2023-05-15T17:03:02;3.75;;;2.50;;
47481;SDS011;33219;47.410;9.730;2023-05-15T17:05:31;2.92;;;2.30;;
47481;SDS011;33219;47.410;9.730;2023-05-15T17:07:59;3.20;;;2.17;;
47481;SDS011;33219;47.410;9.730;2023-05-15T17:10:27;3.10;;;2.20;;
47481;SDS011;33219;47.410;9.730;2023-05-15T17:12:54;3.20;;;2.30;;
47481;SDS011;33219;47.410;9.730;2023-05-15T17:15:23;2.95;;;2.27;;
47481;SDS011;33219;47.410;9.730;2023-05-15T17:17:51;3.20;;;2.33;;
47481;SDS011;33219;47.410;9.730;2023-05-15T17:20:19;2.55;;;2.20;;
47481;SDS011;33219;47.410;9.730;2023-05-15T17:22:47;5.15;;;2.37;;
47481;SDS011;33219;47.410;9.730;2023-05-15T17:25:14;3.35;;;2.30;;
47481;SDS011;33219;47.410;9.730;2023-05-15T17:27:42;4.67;;;2.40;;
47481;SDS011;33219;47.410;9.730;2023-05-15T17:30:10;3.80;;;2.45;;
47481;SDS011;33219;47.410;9.730;2023-05-15T17:32:38;3.92;;;2.52;;
47481;SDS011;33219;47.410;9.730;2023-05-15T17:35:05;5.30;;;2.80;;
47481;SDS011;33219;47.410;9.730;2023-05-15T17:37:33;5.08;;;2.60;;
47481;SDS011;33219;47.410;9.730;2023-05-15T17:40:01;3.17;;;2.33;;
47481;SDS011;33219;47.410;9.730;2023-05-15T17:42:28;3.00;;;2.30;;
47481;SDS011;33219;47.410;9.730;2023-05-15T17:44:56;3.65;;;2.70;;
47481;SDS011;33219;47.410;9.730;2023-05-15T17:47:24;3.20;;;2.50;;
47481;SDS011;33219;47.410;9.730;2023-05-15T17:49:51;2.75;;;2.20;;
47481;SDS011;33219;47.410;9.730;2023-05-15T17:52:20;3.42;;;2.70;;
47481;SDS011;33219;47.410;9.730;2023-05-15T17:54:47;4.37;;;2.70;;
47481;SDS011;33219;47.410;9.730;2023-05-15T17:57:15;5.00;;;2.75;;
47481;SDS011;33219;47.410;9.730;2023-05-15T17:59:43;3.50;;;2.58;;
47481;SDS011;33219;47.410;9.730;2023-05-15T18:02:10;2.52;;;2.10;;
47481;SDS011;33219;47.410;9.730;2023-05-15T18:04:38;3.40;;;2.65;;
47481;SDS011;33219;47.410;9.730;2023-05-15T18:07:05;3.92;;;2.30;;
47481;SDS011;33219;47.410;9.730;2023-05-15T18:09:33;4.40;;;2.35;;
47481;SDS011;33219;47.410;9.730;2023-05-15T18:12:00;3.27;;;2.30;;
47481;SDS011;33219;47.410;9.730;2023-05-15T18:14:28;3.22;;;2.45;;
47481;SDS011;33219;47.410;9.730;2023-05-15T18:16:56;3.15;;;2.33;;
47481;SDS011;33219;47.410;9.730;2023-05-15T18:19:23;3.42;;;1.80;;
47481;SDS011;33219;47.410;9.730;2023-05-15T18:21:51;3.25;;;2.10;;
47481;SDS011;33219;47.410;9.730;2023-05-15T18:24:19;4.05;;;2.27;;
47481;SDS011;33219;47.410;9.730;2023-05-15T18:26:46;2.62;;;1.90;;
47481;SDS011;33219;47.410;9.730;2023-05-15T18:29:14;3.98;;;2.08;;
47481;SDS011;33219;47.410;9.730;2023-05-15T18:31:41;3.80;;;2.10;;
47481;SDS011;33219;47.410;9.730;2023-05-15T18:34:09;4.12;;;2.40;;
47481;SDS011;33219;47.410;9.730;2023-05-15T18:36:36;3.60;;;2.20;;
47481;SDS011;33219;47.410;9.730;2023-05-15T18:39:04;2.67;;;2.15;;
47481;SDS011;33219;47.410;9.730;2023-05-15T18:41:32;3.80;;;2.50;;
47481;SDS011;33219;47.410;9.730;2023-05-15T18:43:59;3.83;;;2.70;;
47481;SDS011;33219;47.410;9.730;2023-05-15T18:46:27;6.12;;;3.27;;
47481;SDS011;33219;47.410;9.730;2023-05-15T18:48:56;3.50;;;2.50;;
47481;SDS011;33219;47.410;9.730;2023-05-15T18:51:24;3.70;;;3.05;;
47481;SDS011;33219;47.410;9.730;2023-05-15T18:53:52;3.33;;;2.50;;
47481;SDS011;33219;47.410;9.730;2023-05-15T18:56:19;5.05;;;2.85;;
47481;SDS011;33219;47.410;9.730;2023-05-15T18:58:47;4.28;;;3.00;;
47481;SDS011;33219;47.410;9.730;2023-05-15T19:01:14;5.05;;;3.10;;